createdAt,value
2018-10-15T00:01:25.766Z,26.27
2018-10-15T00:03:51.774Z,26.01
2018-10-15T00:06:17.745Z,25.31
2018-10-15T00:08:43.747Z,25.78
2018-10-15T00:11:09.732Z,25.54
2018-10-15T00:13:35.715Z,26.26
2018-10-15T00:16:01.658Z,25.24
2018-10-15T00:18:27.625Z,25.43
2018-10-15T00:20:53.555Z,25.87
2018-10-15T00:23:19.521Z,25.91
2018-10-15T00:25:45.495Z,25.84
2018-10-15T00:28:11.440Z,24.81
2018-10-15T00:30:37.444Z,25.00
2018-10-15T00:33:03.428Z,24.94
2018-10-15T00:35:29.381Z,24.95
2018-10-15T00:37:55.363Z,25.15
2018-10-15T00:40:21.327Z,25.10
2018-10-15T00:42:47.332Z,24.88
2018-10-15T00:45:13.300Z,24.98
2018-10-15T00:47:39.296Z,25.17
2018-10-15T00:50:05.271Z,25.54
2018-10-15T00:52:31.239Z,25.33
2018-10-15T00:54:57.213Z,24.68
2018-10-15T00:57:23.158Z,25.52
2018-10-15T00:59:49.112Z,24.74
2018-10-15T01:02:15.068Z,25.72
2018-10-15T01:04:41.026Z,25.50
2018-10-15T01:07:07.048Z,25.36
2018-10-15T01:09:33.045Z,26.04
2018-10-15T01:11:59.002Z,26.29
2018-10-15T01:14:25.010Z,26.08
2018-10-15T01:16:50.994Z,26.06
2018-10-15T01:19:17.067Z,26.42
2018-10-15T01:21:43.109Z,26.29
2018-10-15T01:24:09.075Z,25.62
2018-10-15T01:26:35.056Z,26.58
2018-10-15T01:29:01.019Z,26.46
2018-10-15T01:31:26.984Z,25.95
2018-10-15T01:33:52.938Z,26.85
2018-10-15T01:36:18.923Z,26.27
2018-10-15T01:38:44.962Z,26.16
2018-10-15T01:41:10.962Z,26.03
2018-10-15T01:43:36.959Z,26.76
2018-10-15T01:46:02.915Z,26.05
2018-10-15T01:48:28.889Z,26.33
2018-10-15T01:50:54.875Z,26.59
2018-10-15T01:53:20.831Z,27.35
2018-10-15T01:55:46.838Z,26.73
2018-10-15T01:58:12.783Z,27.07
2018-10-15T02:00:38.775Z,27.11
2018-10-15T02:03:04.764Z,27.88
2018-10-15T02:05:30.719Z,27.31
2018-10-15T02:07:56.679Z,28.02
2018-10-15T02:10:22.654Z,27.66
2018-10-15T02:12:48.630Z,27.63
2018-10-15T02:15:14.619Z,27.61
2018-10-15T02:17:40.561Z,26.67
2018-10-15T02:20:06.551Z,27.01
2018-10-15T02:22:32.518Z,26.01
2018-10-15T02:24:58.489Z,26.16
2018-10-15T02:27:24.463Z,26.28
2018-10-15T02:29:50.427Z,26.63
2018-10-15T02:32:16.399Z,26.46
2018-10-15T02:34:42.379Z,26.28
2018-10-15T02:37:08.350Z,26.90
2018-10-15T02:39:34.301Z,26.07
2018-10-15T02:42:00.260Z,26.51
2018-10-15T02:44:26.275Z,26.36
2018-10-15T02:46:52.255Z,27.50
2018-10-15T02:49:18.251Z,26.98
2018-10-15T02:51:44.200Z,27.61
2018-10-15T02:54:10.170Z,27.03
2018-10-15T02:56:36.146Z,27.19
2018-10-15T02:59:02.086Z,27.30
2018-10-15T03:01:28.057Z,27.76
2018-10-15T03:03:54.035Z,27.57
2018-10-15T03:06:20.002Z,27.20
2018-10-15T03:08:45.992Z,27.93
2018-10-15T03:11:11.969Z,28.01
2018-10-15T03:13:37.979Z,27.47
2018-10-15T03:16:03.997Z,27.33
2018-10-15T03:18:30.028Z,27.85
2018-10-15T03:20:55.995Z,27.91
2018-10-15T03:23:21.977Z,27.58
2018-10-15T03:25:47.992Z,28.12
2018-10-15T03:28:14.975Z,28.21
2018-10-15T03:30:40.953Z,28.08
2018-10-15T03:33:06.893Z,28.82
2018-10-15T03:35:33.850Z,28.90
2018-10-15T03:37:59.824Z,27.92
2018-10-15T03:40:29.683Z,27.98
2018-10-15T03:42:55.741Z,27.72
2018-10-15T03:45:21.754Z,28.41
2018-10-15T03:47:47.740Z,28.30
2018-10-15T03:50:13.737Z,27.81
2018-10-15T03:52:39.727Z,27.80
2018-10-15T03:55:05.708Z,27.67
2018-10-15T03:57:31.724Z,27.50
2018-10-15T03:59:57.757Z,27.34
2018-10-15T04:02:23.893Z,27.34
2018-10-15T04:04:49.760Z,27.23
2018-10-15T04:07:15.739Z,27.06
2018-10-15T04:09:41.812Z,27.78
2018-10-15T04:12:07.856Z,26.89
2018-10-15T04:14:33.827Z,26.85
2018-10-15T04:16:59.787Z,26.44
2018-10-15T04:19:25.782Z,27.50
2018-10-15T04:21:51.762Z,27.30
2018-10-15T04:24:17.743Z,26.79
2018-10-15T04:26:43.713Z,27.62
2018-10-15T04:29:09.689Z,27.46
2018-10-15T04:31:35.656Z,27.09
2018-10-15T04:34:01.638Z,26.38
2018-10-15T04:36:27.590Z,27.13
2018-10-15T04:38:53.565Z,26.69
2018-10-15T04:41:19.521Z,26.44
2018-10-15T04:43:45.533Z,27.32
2018-10-15T04:46:11.498Z,26.34
2018-10-15T04:48:37.463Z,26.50
2018-10-15T04:51:03.448Z,26.56
2018-10-15T04:53:29.405Z,26.93
2018-10-15T04:55:55.380Z,26.44
2018-10-15T04:58:21.363Z,26.65
2018-10-15T05:00:47.382Z,26.94
2018-10-15T05:03:13.361Z,27.21
2018-10-15T05:05:39.322Z,27.26
2018-10-15T05:08:05.282Z,27.06
2018-10-15T05:10:31.321Z,27.17
2018-10-15T05:12:57.343Z,26.24
2018-10-15T05:15:23.471Z,26.16
2018-10-15T05:17:49.460Z,26.04
2018-10-15T05:20:15.767Z,26.24
2018-10-15T05:22:41.768Z,26.46
2018-10-15T05:25:07.774Z,26.78
2018-10-15T05:27:33.737Z,26.06
2018-10-15T05:29:59.714Z,27.18
2018-10-15T05:32:25.690Z,26.50
2018-10-15T05:34:51.720Z,26.70
2018-10-15T05:37:17.705Z,26.98
2018-10-15T05:39:43.683Z,26.30
2018-10-15T05:42:09.697Z,26.77
2018-10-15T05:44:35.629Z,26.74
2018-10-15T05:47:01.713Z,26.78
2018-10-15T05:49:27.571Z,26.34
2018-10-15T05:51:53.578Z,26.86
2018-10-15T05:54:19.610Z,27.24
2018-10-15T05:56:45.545Z,27.11
2018-10-15T05:59:11.537Z,26.83
2018-10-15T06:01:37.519Z,26.77
2018-10-15T06:04:03.517Z,26.24
2018-10-15T06:06:29.496Z,26.22
2018-10-15T06:08:55.482Z,26.92
2018-10-15T06:11:26.454Z,26.92
2018-10-15T06:13:52.420Z,26.74
2018-10-15T06:16:18.415Z,26.12
2018-10-15T06:18:49.840Z,26.03
2018-10-15T06:21:15.896Z,26.28
2018-10-15T06:23:41.885Z,25.85
2018-10-15T06:26:07.848Z,26.85
2018-10-15T06:28:34.874Z,25.95
2018-10-15T06:31:00.812Z,25.32
2018-10-15T06:33:26.814Z,25.26
2018-10-15T06:35:52.784Z,26.33
2018-10-15T06:38:18.821Z,26.05
2018-10-15T06:40:44.723Z,25.68
2018-10-15T06:43:10.668Z,26.18
2018-10-15T06:45:36.629Z,26.27
2018-10-15T06:48:02.635Z,25.31
2018-10-15T06:50:28.597Z,25.78
2018-10-15T06:52:54.577Z,24.99
2018-10-15T06:55:20.623Z,25.16
2018-10-15T07:00:18.924Z,24.98
2018-10-15T07:02:45.985Z,25.53
2018-10-15T07:05:11.972Z,25.29
2018-10-15T07:07:37.941Z,24.31
2018-10-15T07:10:03.906Z,24.33
2018-10-15T07:12:29.902Z,24.53
2018-10-15T07:14:55.859Z,24.23
2018-10-15T07:17:21.822Z,24.41
2018-10-15T07:19:47.787Z,23.92
2018-10-15T07:22:13.824Z,22.92
2018-10-15T07:24:39.769Z,23.90
2018-10-15T07:27:05.774Z,23.68
2018-10-15T07:29:31.774Z,23.24
2018-10-15T07:31:57.717Z,24.01
2018-10-15T07:34:23.791Z,22.99
2018-10-15T07:36:49.756Z,23.39
2018-10-15T07:39:15.714Z,23.89
2018-10-15T07:41:41.692Z,23.38
2018-10-15T07:44:07.702Z,22.70
2018-10-15T07:46:33.707Z,23.61
2018-10-15T07:48:59.763Z,22.95
2018-10-15T07:51:27.772Z,22.53
2018-10-15T07:53:53.782Z,22.50
2018-10-15T07:56:19.897Z,23.13
2018-10-15T07:58:45.850Z,23.13
2018-10-15T08:01:11.898Z,23.59
2018-10-15T08:03:37.847Z,23.85
2018-10-15T08:06:03.822Z,23.38
2018-10-15T08:08:29.939Z,23.29
2018-10-15T08:10:55.763Z,22.73
2018-10-15T08:13:21.715Z,22.39
2018-10-15T08:15:47.841Z,22.44
2018-10-15T08:18:13.760Z,22.63
2018-10-15T08:20:39.835Z,23.04
2018-10-15T08:23:05.776Z,22.10
2018-10-15T08:25:31.743Z,22.92
2018-10-15T08:28:01.323Z,22.70
2018-10-15T08:30:27.303Z,22.62
2018-10-15T08:32:53.260Z,23.40
2018-10-15T08:35:19.343Z,23.20
2018-10-15T08:37:45.379Z,22.60
2018-10-15T08:40:13.250Z,22.45
2018-10-15T08:42:39.358Z,22.67
2018-10-15T08:45:05.420Z,22.81
2018-10-15T08:47:31.423Z,21.77
2018-10-15T08:49:58.385Z,22.46
2018-10-15T08:52:24.407Z,22.11
2018-10-15T08:54:50.460Z,21.35
2018-10-15T08:57:16.481Z,22.16
2018-10-15T08:59:42.511Z,21.96
2018-10-15T09:02:08.523Z,21.25
2018-10-15T09:04:34.597Z,21.30
2018-10-15T09:07:00.712Z,21.52
2018-10-15T09:09:31.165Z,21.65
2018-10-15T09:11:57.020Z,21.76
2018-10-15T09:14:23.005Z,22.03
2018-10-15T09:16:49.880Z,22.22
2018-10-15T09:19:15.904Z,21.46
2018-10-15T09:21:41.919Z,21.10
2018-10-15T09:24:07.938Z,21.32
2018-10-15T09:26:33.901Z,21.64
2018-10-15T09:28:59.916Z,20.84
2018-10-15T09:31:25.940Z,21.01
2018-10-15T09:33:51.904Z,20.89
2018-10-15T09:36:17.911Z,21.14
2018-10-15T09:38:45.163Z,21.41
2018-10-15T09:41:11.100Z,20.54
2018-10-15T09:43:37.990Z,21.45
2018-10-15T09:46:04.047Z,21.57
2018-10-15T09:48:30.059Z,21.08
2018-10-15T09:50:56.986Z,20.79
2018-10-15T09:53:23.013Z,21.07
2018-10-15T09:55:48.972Z,21.12
2018-10-15T09:58:14.959Z,21.21
2018-10-15T10:00:41.033Z,20.89
2018-10-15T10:03:07.087Z,21.28
2018-10-15T10:05:33.091Z,21.05
2018-10-15T10:07:59.167Z,22.00
2018-10-15T10:10:25.115Z,22.09
2018-10-15T10:12:51.278Z,21.51
2018-10-15T10:15:17.940Z,21.81
2018-10-15T10:17:44.245Z,21.60
2018-10-15T10:20:10.163Z,21.57
2018-10-15T10:22:36.183Z,21.82
2018-10-15T10:25:03.597Z,21.08
2018-10-15T10:27:29.618Z,21.23
2018-10-15T10:29:55.902Z,21.57
2018-10-15T10:32:21.857Z,20.68
2018-10-15T10:34:47.907Z,21.32
2018-10-15T10:37:13.909Z,20.70
2018-10-15T10:39:39.919Z,20.58
2018-10-15T10:42:05.944Z,21.27
2018-10-15T10:44:31.945Z,21.47
2018-10-15T10:46:58.697Z,20.88
2018-10-15T10:49:24.711Z,21.84
2018-10-15T10:51:50.726Z,20.58
2018-10-15T10:54:16.853Z,21.06
2018-10-15T10:56:42.805Z,21.35
2018-10-15T10:59:08.811Z,21.18
2018-10-15T11:01:34.779Z,21.22
2018-10-15T11:04:00.770Z,20.40
2018-10-15T11:06:27.739Z,20.48
2018-10-15T11:08:53.723Z,20.62
2018-10-15T11:11:19.781Z,20.63
2018-10-15T11:13:45.773Z,20.44
2018-10-15T11:16:11.822Z,21.26
2018-10-15T11:18:38.008Z,20.64
2018-10-15T11:21:04.118Z,20.67
2018-10-15T11:23:30.057Z,20.54
2018-10-15T11:25:56.069Z,21.16
2018-10-15T11:28:22.518Z,21.93
2018-10-15T11:30:48.478Z,21.71
2018-10-15T11:33:14.469Z,21.59
2018-10-15T11:35:40.442Z,21.81
2018-10-15T11:38:06.462Z,22.67
2018-10-15T11:40:32.510Z,22.11
2018-10-15T11:42:58.626Z,21.36
2018-10-15T11:48:00.024Z,21.06
2018-10-15T11:50:26.053Z,21.39
2018-10-15T11:52:52.049Z,20.45
2018-10-15T11:55:18.719Z,20.47
2018-10-15T11:57:44.739Z,21.45
2018-10-15T12:00:10.739Z,21.64
2018-10-15T12:02:36.803Z,21.19
2018-10-15T12:05:02.805Z,21.65
2018-10-15T12:07:28.816Z,20.78
2018-10-15T12:09:54.923Z,21.02
2018-10-15T12:12:20.969Z,21.13
2018-10-15T12:14:47.020Z,20.86
2018-10-15T12:22:20.392Z,21.45
2018-10-15T12:29:49.197Z,20.87
2018-10-15T12:32:15.137Z,21.26
2018-10-15T12:34:41.150Z,21.20
2018-10-15T12:37:07.160Z,20.82
2018-10-15T12:39:33.131Z,21.33
2018-10-15T12:41:59.112Z,20.87
2018-10-15T12:44:25.071Z,20.47
2018-10-15T12:46:51.034Z,20.69
2018-10-15T12:49:17.006Z,20.45
2018-10-15T12:51:42.972Z,20.55
2018-10-15T12:54:08.959Z,20.94
2018-10-15T12:56:34.971Z,20.56
2018-10-15T12:59:02.783Z,21.41
2018-10-15T13:01:28.756Z,20.79
2018-10-15T13:03:58.106Z,20.82
2018-10-15T13:06:24.115Z,21.24
2018-10-15T13:08:51.211Z,21.09
2018-10-15T13:11:17.260Z,21.10
2018-10-15T13:13:43.313Z,21.20
2018-10-15T13:16:10.304Z,21.31
2018-10-15T13:18:36.410Z,21.76
2018-10-15T13:21:02.468Z,21.04
2018-10-15T13:23:29.765Z,21.63
2018-10-15T13:25:55.788Z,21.28
2018-10-15T13:28:21.801Z,21.57
2018-10-15T13:30:47.909Z,21.07
2018-10-15T13:33:13.939Z,21.01
2018-10-15T13:35:39.900Z,21.19
2018-10-15T13:38:05.939Z,21.36
2018-10-15T13:40:33.239Z,21.93
2018-10-15T13:42:59.277Z,21.70
2018-10-15T13:45:25.325Z,21.85
2018-10-15T13:47:51.366Z,21.83
2018-10-15T13:50:21.181Z,21.41
2018-10-15T13:52:47.251Z,21.46
2018-10-15T13:55:13.214Z,21.11
2018-10-15T13:57:39.225Z,21.43
2018-10-15T14:00:05.283Z,21.29
2018-10-15T14:02:31.383Z,21.54
2018-10-15T14:04:57.640Z,20.69
2018-10-15T14:07:23.690Z,21.34
2018-10-15T14:09:49.710Z,20.49
2018-10-15T14:14:51.945Z,20.71
2018-10-15T14:17:18.019Z,21.56
2018-10-15T14:19:44.078Z,20.70
2018-10-15T14:22:10.146Z,21.13
2018-10-15T14:24:36.894Z,20.96
2018-10-15T14:27:03.029Z,21.25
2018-10-15T14:29:29.090Z,20.66
2018-10-15T14:31:55.114Z,21.15
2018-10-15T14:34:22.012Z,21.71
2018-10-15T14:36:48.028Z,21.06
2018-10-15T14:39:14.100Z,21.27
2018-10-15T14:41:40.085Z,21.42
2018-10-15T14:44:06.959Z,21.60
2018-10-15T14:46:33.109Z,20.90
2018-10-15T14:48:59.187Z,21.04
2018-10-15T14:51:25.137Z,20.91
2018-10-15T14:53:51.227Z,21.51
2018-10-15T14:56:17.192Z,21.12
2018-10-15T14:58:43.162Z,21.24
2018-10-15T15:01:09.946Z,20.51
2018-10-15T15:03:37.058Z,20.46
2018-10-15T15:06:03.817Z,21.02
2018-10-15T15:08:29.803Z,20.89
2018-10-15T15:10:55.786Z,21.25
2018-10-15T15:13:21.925Z,20.82
2018-10-15T15:15:47.898Z,21.62
2018-10-15T15:18:14.791Z,20.73
2018-10-15T15:23:12.139Z,21.44
2018-10-15T15:25:38.211Z,21.76
2018-10-15T15:28:04.349Z,21.45
2018-10-15T15:30:30.301Z,21.36
2018-10-15T15:32:56.434Z,21.71
2018-10-15T15:35:22.412Z,21.08
2018-10-15T15:37:48.445Z,21.51
2018-10-15T15:40:15.178Z,21.79
2018-10-15T15:42:41.242Z,21.15
2018-10-15T15:45:07.327Z,21.33
2018-10-15T15:47:33.369Z,21.87
2018-10-15T15:49:59.403Z,21.70
2018-10-15T15:52:25.470Z,21.10
2018-10-15T16:07:29.394Z,22.10
2018-10-15T16:09:55.511Z,22.25
2018-10-15T16:17:24.234Z,21.80
2018-10-15T16:19:50.218Z,21.19
2018-10-15T16:22:16.245Z,21.67
2018-10-15T16:24:42.352Z,22.00
2018-10-15T16:27:08.346Z,21.59
2018-10-15T16:29:34.445Z,22.25
2018-10-15T16:32:00.442Z,22.74
2018-10-15T16:34:27.557Z,22.33
2018-10-15T16:36:53.616Z,22.05
2018-10-15T16:39:20.700Z,22.58
2018-10-15T16:41:46.678Z,21.60
2018-10-15T16:44:12.657Z,22.02
2018-10-15T16:46:38.630Z,22.59
2018-10-15T16:49:04.605Z,22.69
2018-10-15T16:51:30.782Z,22.60
2018-10-15T16:53:56.716Z,22.66
2018-10-15T16:56:22.668Z,22.80
2018-10-15T16:58:48.651Z,23.58
2018-10-15T17:01:14.659Z,23.71
2018-10-15T17:03:40.691Z,22.90
2018-10-15T17:06:06.724Z,23.50
2018-10-15T17:08:32.700Z,24.48
2018-10-15T17:10:58.714Z,23.65
2018-10-15T17:13:25.407Z,23.85
2018-10-15T17:15:51.535Z,24.37
2018-10-15T17:18:17.550Z,23.95
2018-10-15T17:20:43.565Z,24.67
2018-10-15T17:23:10.651Z,24.90
2018-10-15T17:25:36.714Z,25.44
2018-10-15T17:28:02.756Z,25.95
2018-10-15T17:30:28.798Z,25.57
2018-10-15T17:32:54.842Z,25.03
2018-10-15T17:35:20.877Z,25.20
2018-10-15T17:37:47.102Z,25.07
2018-10-15T17:40:15.011Z,25.20
2018-10-15T17:42:41.002Z,25.17
2018-10-15T17:45:06.970Z,26.48
2018-10-15T17:47:32.954Z,25.84
2018-10-15T17:49:58.927Z,25.24
2018-10-15T17:52:24.912Z,25.24
2018-10-15T17:54:50.944Z,25.11
2018-10-15T17:57:17.018Z,24.73
2018-10-15T17:59:42.974Z,24.72
2018-10-15T18:02:08.961Z,24.71
2018-10-15T18:04:35.947Z,25.05
2018-10-15T18:07:02.779Z,24.01
2018-10-15T18:09:29.150Z,24.20
2018-10-15T18:11:55.297Z,24.70
2018-10-15T18:14:21.389Z,25.37
2018-10-15T18:16:47.365Z,24.64
2018-10-15T18:19:13.359Z,25.35
2018-10-15T18:21:40.183Z,25.14
2018-10-15T18:24:06.325Z,25.33
2018-10-15T18:26:32.740Z,26.26
2018-10-15T18:28:58.870Z,26.08
2018-10-15T18:31:25.667Z,25.90
2018-10-15T18:33:51.703Z,26.22
2018-10-15T18:36:17.717Z,25.62
2018-10-15T18:38:43.737Z,26.17
2018-10-15T18:41:09.768Z,25.37
2018-10-15T18:43:35.788Z,25.57
2018-10-15T18:46:01.898Z,26.44
2018-10-15T18:48:27.905Z,27.04
2018-10-15T18:50:53.994Z,26.85
2018-10-15T18:53:20.150Z,27.62
2018-10-15T18:55:46.242Z,26.62
2018-10-15T18:58:12.277Z,27.15
2018-10-15T19:00:38.301Z,27.28
2018-10-15T19:03:04.291Z,26.80
2018-10-15T19:07:56.053Z,26.20
2018-10-15T19:10:22.160Z,27.14
2018-10-15T19:12:48.228Z,26.43
2018-10-15T19:15:14.329Z,26.18
2018-10-15T19:17:40.300Z,26.92
2018-10-15T19:20:06.333Z,26.97
2018-10-15T19:22:32.329Z,26.61
2018-10-15T19:24:58.401Z,26.29
2018-10-15T19:27:24.392Z,26.60
2018-10-15T19:29:50.384Z,26.56
2018-10-15T19:32:16.389Z,27.45
2018-10-15T19:34:42.385Z,26.75
2018-10-15T19:37:08.338Z,27.31
2018-10-15T19:39:34.381Z,27.02
2018-10-15T19:42:00.380Z,27.34
2018-10-15T19:46:59.636Z,26.73
2018-10-15T19:49:25.668Z,27.03
2018-10-15T19:51:51.687Z,27.37
2018-10-15T19:54:17.702Z,27.51
2018-10-15T19:56:43.848Z,27.49
2018-10-15T19:59:09.862Z,26.89
2018-10-15T20:01:35.857Z,27.39
2018-10-15T20:04:01.971Z,27.29
2018-10-15T20:06:27.846Z,27.26
2018-10-15T20:08:53.841Z,27.22
2018-10-15T20:11:19.838Z,27.56
2018-10-15T20:13:45.850Z,28.02
2018-10-15T20:16:11.835Z,28.83
2018-10-15T20:18:37.837Z,29.07
2018-10-15T20:21:03.845Z,29.22
2018-10-15T20:23:29.856Z,29.71
2018-10-15T20:25:56.900Z,29.14
2018-10-15T20:28:22.930Z,29.95
2018-10-15T20:30:48.886Z,29.57
2018-10-15T20:33:14.891Z,30.31
2018-10-15T20:35:40.903Z,29.89
2018-10-15T20:38:08.950Z,30.48
2018-10-15T20:43:07.323Z,30.21
2018-10-15T20:45:33.288Z,30.73
2018-10-15T20:47:59.358Z,30.14
2018-10-15T20:50:25.320Z,31.04
2018-10-15T20:52:51.273Z,30.99
2018-10-15T20:55:17.278Z,30.93
2018-10-15T20:57:43.348Z,31.99
2018-10-15T21:00:09.327Z,31.69
2018-10-15T21:02:35.430Z,31.29
2018-10-15T21:05:01.772Z,31.51
2018-10-15T21:07:27.859Z,32.59
2018-10-15T21:09:53.907Z,31.60
2018-10-15T21:12:19.911Z,32.03
2018-10-15T21:14:46.029Z,31.82
2018-10-15T21:17:12.045Z,31.60
2018-10-15T21:19:38.161Z,32.16
2018-10-15T21:22:04.293Z,31.15
2018-10-15T21:24:30.452Z,31.49
2018-10-15T21:26:56.589Z,31.70
2018-10-15T21:29:22.586Z,31.01
2018-10-15T21:31:48.739Z,30.70
2018-10-15T21:34:14.890Z,30.66
2018-10-15T21:36:41.107Z,30.47
2018-10-15T21:39:07.200Z,30.08
2018-10-15T21:41:33.332Z,30.59
2018-10-15T21:43:59.351Z,30.57
2018-10-15T21:46:25.464Z,30.90
2018-10-15T21:48:51.452Z,30.22
2018-10-15T21:51:17.456Z,30.50
2018-10-15T21:53:43.530Z,29.92
2018-10-15T21:56:09.569Z,29.83
2018-10-15T21:58:35.715Z,29.74
2018-10-15T22:01:01.847Z,30.12
2018-10-15T22:03:27.859Z,29.76
2018-10-15T22:05:53.958Z,30.33
2018-10-15T22:08:19.896Z,30.74
2018-10-15T22:10:45.952Z,30.23
2018-10-15T22:13:11.971Z,31.10
2018-10-15T22:15:37.984Z,31.13
2018-10-15T22:18:03.996Z,30.72
2018-10-15T22:20:30.002Z,31.30
2018-10-15T22:22:56.004Z,30.73
2018-10-15T22:25:21.999Z,30.72
2018-10-15T22:27:48.025Z,31.70
2018-10-15T22:30:14.058Z,31.09
2018-10-15T22:32:40.085Z,31.12
2018-10-15T22:35:06.073Z,30.85
2018-10-15T22:37:32.097Z,31.81
2018-10-15T22:39:58.145Z,31.54
2018-10-15T22:42:24.163Z,31.30
2018-10-15T22:44:50.201Z,32.04
2018-10-15T22:47:16.225Z,31.61
2018-10-15T22:49:42.260Z,31.83
2018-10-15T22:52:08.270Z,31.07
2018-10-15T22:54:34.286Z,31.43
2018-10-15T22:57:00.291Z,31.15
2018-10-15T22:59:26.351Z,32.13
2018-10-15T23:01:52.376Z,31.82
2018-10-15T23:04:18.398Z,32.05
2018-10-15T23:06:44.427Z,31.68
2018-10-15T23:09:10.457Z,32.38
2018-10-15T23:11:36.488Z,32.16
2018-10-15T23:14:02.538Z,32.01
2018-10-15T23:16:28.573Z,31.96
2018-10-15T23:18:54.601Z,32.07
2018-10-15T23:21:20.697Z,32.20
2018-10-15T23:23:46.710Z,32.74
2018-10-15T23:26:12.720Z,31.47
2018-10-15T23:28:38.746Z,31.75
2018-10-15T23:31:04.770Z,31.99
2018-10-15T23:33:30.793Z,32.25
2018-10-15T23:35:56.824Z,31.84
2018-10-15T23:38:22.832Z,31.91
2018-10-15T23:40:48.873Z,32.17
2018-10-15T23:43:14.884Z,32.05
2018-10-15T23:45:40.915Z,32.43
2018-10-15T23:48:06.938Z,31.67
2018-10-15T23:50:32.963Z,32.41
2018-10-15T23:52:58.985Z,32.27
2018-10-15T23:55:25.057Z,32.32
2018-10-15T23:57:51.078Z,31.75
